createdAt,value
2023-04-13T00:00:08.776Z,10.70
2023-04-13T00:02:41.217Z,10.41
2023-04-13T00:05:10.829Z,10.20
2023-04-13T00:07:40.877Z,10.28
2023-04-13T00:10:09.798Z,10.28
2023-04-13T00:12:40.997Z,10.27
2023-04-13T00:15:07.934Z,10.34
2023-04-13T00:17:34.451Z,10.24
2023-04-13T00:20:01.586Z,10.32
2023-04-13T00:22:28.010Z,9.82
2023-04-13T00:24:55.407Z,9.97
2023-04-13T00:27:23.548Z,9.58
2023-04-13T00:29:49.962Z,9.50
2023-04-13T00:32:16.368Z,9.03
2023-04-13T00:34:42.831Z,9.53
2023-04-13T00:37:09.250Z,9.22
2023-04-13T00:39:35.653Z,9.99
2023-04-13T00:42:02.077Z,10.39
2023-04-13T00:44:28.511Z,9.54
2023-04-13T00:46:55.001Z,10.51
2023-04-13T00:49:24.209Z,10.59
2023-04-13T00:51:53.745Z,10.35
2023-04-13T00:54:20.108Z,10.41
2023-04-13T00:56:46.634Z,10.21
2023-04-13T00:59:14.121Z,10.72
2023-04-13T01:01:46.823Z,10.02
2023-04-13T01:04:13.974Z,10.77
2023-04-13T01:06:50.130Z,10.21
2023-04-13T01:09:20.671Z,10.36
2023-04-13T01:11:57.696Z,9.70
2023-04-13T01:14:33.268Z,10.46
2023-04-13T01:17:03.980Z,10.16
2023-04-13T01:19:40.742Z,10.94
2023-04-13T01:22:08.730Z,10.76
2023-04-13T01:24:53.441Z,10.57
2023-04-13T01:27:57.499Z,10.90
2023-04-13T01:30:28.153Z,10.79
2023-04-13T01:32:59.299Z,10.56
2023-04-13T01:35:26.055Z,10.50
2023-04-13T01:37:53.211Z,10.62
2023-04-13T01:40:25.147Z,10.18
2023-04-13T01:42:52.430Z,10.03
2023-04-13T01:45:26.178Z,9.89
2023-04-13T01:48:21.191Z,11.06
2023-04-13T01:51:07.893Z,10.74
2023-04-13T01:53:42.430Z,10.85
2023-04-13T01:56:09.546Z,11.13
2023-04-13T01:58:36.870Z,11.07
2023-04-13T02:01:07.595Z,10.16
2023-04-13T02:03:36.265Z,11.00
2023-04-13T02:06:02.947Z,10.73
2023-04-13T02:08:32.880Z,10.13
2023-04-13T02:11:00.868Z,9.79
2023-04-13T02:13:27.272Z,10.29
2023-04-13T02:15:53.724Z,9.77
2023-04-13T02:18:20.179Z,10.05
2023-04-13T02:20:46.606Z,9.79
2023-04-13T02:23:17.754Z,9.62
2023-04-13T02:25:47.629Z,10.23
2023-04-13T02:28:17.511Z,10.14
2023-04-13T02:30:44.664Z,10.01
2023-04-13T02:33:11.125Z,9.71
2023-04-13T02:35:39.050Z,10.69
2023-04-13T02:38:06.733Z,10.41
2023-04-13T02:40:33.122Z,10.29
2023-04-13T02:42:59.969Z,10.73
2023-04-13T02:45:27.189Z,10.55
2023-04-13T02:47:53.786Z,10.59
2023-04-13T02:50:20.648Z,9.83
2023-04-13T02:52:47.044Z,10.09
2023-04-13T02:55:13.431Z,10.41
2023-04-13T02:57:42.152Z,10.35
2023-04-13T03:00:11.908Z,9.80
2023-04-13T03:02:38.417Z,9.87
2023-04-13T03:05:08.168Z,10.42
2023-04-13T03:07:36.115Z,10.09
2023-04-13T03:10:05.377Z,10.56
2023-04-13T03:12:32.687Z,10.76
2023-04-13T03:15:02.221Z,9.87
2023-04-13T03:17:30.241Z,9.54
2023-04-13T03:19:57.650Z,10.65
2023-04-13T03:22:25.842Z,10.44
2023-04-13T03:24:52.483Z,10.51
2023-04-13T03:27:21.309Z,9.75
2023-04-13T03:29:47.655Z,9.61
2023-04-13T03:32:14.018Z,9.97
2023-04-13T03:34:43.920Z,9.57
2023-04-13T03:37:11.624Z,9.78
2023-04-13T03:39:39.234Z,9.87
2023-04-13T03:42:05.690Z,9.68
2023-04-13T03:44:33.062Z,9.58
2023-04-13T03:46:59.518Z,9.38
2023-04-13T03:49:25.974Z,9.21
2023-04-13T03:51:52.574Z,9.46
2023-04-13T03:54:19.048Z,9.32
2023-04-13T03:56:45.485Z,9.50
2023-04-13T03:59:11.842Z,9.56
2023-04-13T04:01:39.274Z,7.89
2023-04-13T04:04:05.928Z,9.48
2023-04-13T04:06:32.464Z,8.64
2023-04-13T04:08:58.899Z,9.33
2023-04-13T04:11:25.931Z,8.78
2023-04-13T04:13:52.355Z,8.82
2023-04-13T04:16:18.753Z,9.05
2023-04-13T04:18:45.414Z,9.62
2023-04-13T04:21:15.448Z,9.58
2023-04-13T04:23:41.830Z,9.28
2023-04-13T04:26:08.413Z,9.55
2023-04-13T04:28:40.687Z,8.84
2023-04-13T04:31:10.573Z,9.63
2023-04-13T04:33:38.651Z,9.54
2023-04-13T04:36:10.313Z,8.81
2023-04-13T04:38:36.824Z,9.73
2023-04-13T04:41:06.255Z,8.70
2023-04-13T04:43:32.598Z,9.49
2023-04-13T04:45:59.075Z,10.17
2023-04-13T04:48:26.883Z,9.94
2023-04-13T04:50:54.081Z,10.06
2023-04-13T04:53:20.996Z,9.81
2023-04-13T04:55:47.734Z,9.96
2023-04-13T04:58:14.121Z,9.58
2023-04-13T05:00:40.529Z,10.17
2023-04-13T05:03:08.106Z,9.82
2023-04-13T05:05:35.330Z,9.13
2023-04-13T05:08:01.970Z,9.46
2023-04-13T05:10:29.610Z,10.00
2023-04-13T05:12:56.725Z,9.83
2023-04-13T05:15:23.300Z,8.98
2023-04-13T05:17:50.945Z,9.91
2023-04-13T05:20:20.355Z,10.05
2023-04-13T05:22:46.838Z,9.56
2023-04-13T05:25:13.401Z,8.64
2023-04-13T05:27:39.808Z,9.73
2023-04-13T05:30:06.956Z,9.03
2023-04-13T05:32:34.922Z,10.24
2023-04-13T05:35:01.660Z,9.27
2023-04-13T05:37:28.347Z,9.34
2023-04-13T05:39:54.792Z,9.51
2023-04-13T05:42:21.303Z,9.61
2023-04-13T05:44:47.825Z,9.51
2023-04-13T05:47:14.378Z,9.91
2023-04-13T05:49:40.922Z,9.03
2023-04-13T05:52:07.614Z,10.08
2023-04-13T05:54:33.976Z,10.08
2023-04-13T05:57:00.488Z,10.01
2023-04-13T05:59:27.397Z,9.96
2023-04-13T06:01:54.137Z,9.87
2023-04-13T06:04:22.865Z,10.23
2023-04-13T06:06:49.907Z,10.69
2023-04-13T06:09:16.459Z,10.16
2023-04-13T06:11:43.231Z,9.89
2023-04-13T06:14:09.642Z,9.27
2023-04-13T06:16:37.072Z,10.28
2023-04-13T06:19:05.985Z,10.09
2023-04-13T06:21:32.437Z,9.90
2023-04-13T06:23:58.843Z,10.60
2023-04-13T06:26:30.131Z,10.87
2023-04-13T06:28:59.685Z,10.46
2023-04-13T06:31:27.805Z,10.15
2023-04-13T06:33:55.030Z,10.20
2023-04-13T06:36:21.385Z,10.23
2023-04-13T06:38:49.094Z,10.20
2023-04-13T06:41:15.587Z,10.18
2023-04-13T06:43:42.040Z,10.71
2023-04-13T06:46:12.326Z,10.48
2023-04-13T06:48:38.762Z,10.28
2023-04-13T06:51:05.378Z,10.88
2023-04-13T06:53:32.749Z,10.71
2023-04-13T06:55:59.203Z,10.47
2023-04-13T06:58:25.670Z,10.02
2023-04-13T07:00:54.502Z,10.42
2023-04-13T07:03:21.099Z,11.01
2023-04-13T07:05:47.816Z,10.08
2023-04-13T07:08:14.342Z,10.44
2023-04-13T07:10:41.004Z,10.85
2023-04-13T07:13:07.620Z,10.67
2023-04-13T07:15:36.774Z,11.53
2023-04-13T07:21:00.498Z,11.38
2023-04-13T07:23:27.400Z,10.71
2023-04-13T07:25:53.821Z,10.74
2023-04-13T07:28:20.260Z,10.35
2023-04-13T07:30:58.667Z,10.92
2023-04-13T07:33:25.282Z,11.18
2023-04-13T07:35:54.682Z,10.86
2023-04-13T07:38:24.105Z,11.15
2023-04-13T07:40:50.597Z,11.66
2023-04-13T07:43:18.645Z,11.67
2023-04-13T07:45:46.439Z,11.57
2023-04-13T07:48:12.902Z,11.00
2023-04-13T07:50:43.242Z,11.59
2023-04-13T07:53:09.879Z,11.73
2023-04-13T07:55:37.693Z,11.80
2023-04-13T07:58:04.123Z,11.70
2023-04-13T08:00:30.757Z,11.89
2023-04-13T08:02:57.344Z,11.27
2023-04-13T08:05:25.137Z,12.07
2023-04-13T08:07:51.650Z,11.82
2023-04-13T08:10:17.968Z,12.32
2023-04-13T08:12:44.427Z,12.06
2023-04-13T08:15:10.905Z,11.54
2023-04-13T08:17:37.528Z,11.49
2023-04-13T08:20:08.112Z,11.76
2023-04-13T08:22:34.845Z,11.68
2023-04-13T08:25:01.529Z,12.51
2023-04-13T08:27:28.177Z,11.36
2023-04-13T08:30:01.672Z,12.00
2023-04-13T08:32:28.376Z,12.11
2023-04-13T08:34:55.643Z,12.41
2023-04-13T08:37:22.091Z,12.76
2023-04-13T08:39:48.508Z,12.41
2023-04-13T08:42:15.959Z,12.71
2023-04-13T08:44:42.974Z,12.21
2023-04-13T08:47:10.933Z,13.16
2023-04-13T08:49:39.265Z,12.91
2023-04-13T08:52:08.776Z,12.33
2023-04-13T08:54:35.249Z,12.38
2023-04-13T08:57:02.774Z,11.90
2023-04-13T08:59:30.213Z,12.60
2023-04-13T09:02:01.707Z,13.03
2023-04-13T09:04:33.482Z,12.61
2023-04-13T09:07:04.643Z,11.82
2023-04-13T09:09:32.466Z,12.21
2023-04-13T09:11:59.122Z,13.07
2023-04-13T09:14:25.512Z,13.08
2023-04-13T09:16:52.100Z,13.79
2023-04-13T09:19:32.419Z,13.66
2023-04-13T09:21:59.277Z,13.29
2023-04-13T09:24:39.581Z,12.86
2023-04-13T09:27:06.047Z,12.85
2023-04-13T09:29:38.264Z,13.63
2023-04-13T09:32:06.458Z,13.21
2023-04-13T09:34:32.920Z,12.81
2023-04-13T09:37:01.679Z,12.15
2023-04-13T09:39:31.474Z,12.93
2023-04-13T09:42:09.831Z,12.40
2023-04-13T09:44:36.249Z,13.12
2023-04-13T09:47:07.649Z,12.75
2023-04-13T09:49:41.980Z,13.76
2023-04-13T09:52:26.513Z,13.44
2023-04-13T09:54:58.705Z,13.39
2023-04-13T09:57:29.176Z,13.26
2023-04-13T10:00:00.864Z,13.21
2023-04-13T10:02:28.063Z,13.05
2023-04-13T10:04:54.820Z,12.75
2023-04-13T10:07:26.574Z,12.58
2023-04-13T10:09:54.051Z,12.40
2023-04-13T10:12:20.690Z,12.61
2023-04-13T10:14:48.925Z,13.08
2023-04-13T10:17:40.830Z,13.67
2023-04-13T10:20:10.484Z,13.43
2023-04-13T10:22:38.357Z,13.91
2023-04-13T10:25:07.130Z,13.47
2023-04-13T10:27:36.382Z,14.16
2023-04-13T10:30:14.520Z,14.50
2023-04-13T10:32:42.188Z,13.61
2023-04-13T10:35:11.632Z,13.68
2023-04-13T10:37:40.408Z,14.10
2023-04-13T10:40:10.089Z,13.70
2023-04-13T10:42:52.948Z,15.09
2023-04-13T10:45:24.010Z,15.13
2023-04-13T10:47:51.009Z,14.48
2023-04-13T10:50:22.339Z,13.77
2023-04-13T10:53:06.659Z,14.48
2023-04-13T10:55:33.981Z,13.95
2023-04-13T10:58:13.685Z,12.83
2023-04-13T11:00:46.600Z,12.23
2023-04-13T11:03:19.284Z,13.17
2023-04-13T11:05:47.524Z,13.20
2023-04-13T11:08:20.693Z,14.42
2023-04-13T11:10:55.298Z,15.47
2023-04-13T11:13:26.568Z,14.51
2023-04-13T11:16:06.907Z,14.53
2023-04-13T11:18:33.535Z,15.05
2023-04-13T11:21:00.280Z,14.10
2023-04-13T11:23:26.867Z,14.79
2023-04-13T11:26:01.035Z,15.41
2023-04-13T11:28:46.149Z,15.24
2023-04-13T11:31:13.106Z,14.71
2023-04-13T11:33:40.750Z,14.83
2023-04-13T11:36:07.946Z,14.65
2023-04-13T11:38:34.381Z,15.00
2023-04-13T11:41:16.545Z,14.54
2023-04-13T11:43:46.350Z,15.94
2023-04-13T11:46:23.085Z,16.00
2023-04-13T11:48:49.954Z,15.87
2023-04-13T11:51:17.537Z,16.98
2023-04-13T11:53:45.924Z,17.20
2023-04-13T11:56:14.438Z,16.44
2023-04-13T11:58:42.299Z,16.11
2023-04-13T12:01:14.539Z,16.29
2023-04-13T12:04:01.036Z,15.72
2023-04-13T12:06:35.058Z,16.40
2023-04-13T12:09:10.690Z,16.43
2023-04-13T12:11:50.374Z,17.09
2023-04-13T12:19:23.244Z,16.05
2023-04-13T12:21:57.059Z,15.89
2023-04-13T12:24:38.641Z,16.13
2023-04-13T12:29:39.568Z,16.16
2023-04-13T12:32:17.027Z,17.40
2023-04-13T12:34:45.123Z,17.07
2023-04-13T12:37:12.150Z,16.48
2023-04-13T12:39:38.817Z,16.79
2023-04-13T12:42:05.522Z,17.78
2023-04-13T12:44:33.823Z,17.27
2023-04-13T12:47:01.127Z,18.33
2023-04-13T12:49:27.724Z,17.76
2023-04-13T12:51:56.331Z,17.67
2023-04-13T12:54:22.754Z,17.22
2023-04-13T12:56:49.155Z,16.96
2023-04-13T12:59:16.571Z,16.73
2023-04-13T13:01:42.961Z,16.03
2023-04-13T13:04:09.627Z,15.97
2023-04-13T13:06:36.155Z,16.48
2023-04-13T13:09:02.627Z,16.41
2023-04-13T13:11:29.131Z,16.45
2023-04-13T13:13:55.785Z,16.84
2023-04-13T13:16:22.286Z,18.25
2023-04-13T13:19:00.776Z,17.88
2023-04-13T13:21:27.958Z,18.34
2023-04-13T13:23:55.446Z,19.27
2023-04-13T13:26:24.384Z,18.14
2023-04-13T13:28:52.712Z,19.10
2023-04-13T13:31:19.718Z,19.29
2023-04-13T13:33:46.323Z,19.88
2023-04-13T13:36:14.007Z,18.41
2023-04-13T13:38:41.181Z,17.68
2023-04-13T13:41:07.552Z,17.57
2023-04-13T13:43:34.253Z,17.39
2023-04-13T13:46:00.789Z,18.16
2023-04-13T13:48:27.223Z,19.07
2023-04-13T13:50:53.628Z,18.24
2023-04-13T13:53:21.238Z,18.93
2023-04-13T13:55:49.883Z,19.12
2023-04-13T13:58:16.715Z,17.72
2023-04-13T14:00:43.441Z,18.82
2023-04-13T14:03:13.798Z,19.18
2023-04-13T14:05:40.465Z,17.88
2023-04-13T14:08:07.170Z,17.73
2023-04-13T14:10:35.943Z,18.56
2023-04-13T14:13:11.713Z,18.44
2023-04-13T14:15:38.201Z,18.88
2023-04-13T14:18:09.778Z,18.61
2023-04-13T14:20:38.918Z,18.36
2023-04-13T14:23:05.968Z,19.37
2023-04-13T14:25:32.309Z,19.07
2023-04-13T14:27:58.763Z,19.88
2023-04-13T14:30:27.094Z,18.81
2023-04-13T14:32:54.196Z,17.50
2023-04-13T14:35:20.935Z,18.08
2023-04-13T14:37:47.551Z,17.44
2023-04-13T14:40:14.323Z,18.36
2023-04-13T14:42:41.023Z,19.47
2023-04-13T14:45:10.399Z,18.84
2023-04-13T14:47:37.224Z,18.79
2023-04-13T14:50:03.938Z,18.38
2023-04-13T14:52:30.383Z,18.01
2023-04-13T14:54:57.207Z,17.86
2023-04-13T14:57:24.122Z,17.79
2023-04-13T14:59:50.504Z,17.42
2023-04-13T15:02:17.096Z,18.05
2023-04-13T15:04:43.782Z,17.57
2023-04-13T15:07:11.132Z,17.48
2023-04-13T15:09:40.982Z,19.26
2023-04-13T15:12:12.647Z,18.85
2023-04-13T15:14:40.555Z,18.98
2023-04-13T15:17:08.335Z,18.70
2023-04-13T15:19:34.740Z,18.33
2023-04-13T15:22:01.251Z,18.21
2023-04-13T15:24:27.616Z,17.90
2023-04-13T15:26:54.132Z,17.86
2023-04-13T15:29:20.784Z,17.66
2023-04-13T15:31:47.181Z,17.82
2023-04-13T15:34:13.771Z,17.53
2023-04-13T15:36:40.194Z,17.25
2023-04-13T15:39:06.556Z,17.09
2023-04-13T15:41:32.914Z,16.98
2023-04-13T15:44:00.259Z,17.68
2023-04-13T15:46:29.726Z,18.52
2023-04-13T15:48:56.317Z,18.71
2023-04-13T15:51:22.952Z,19.01
2023-04-13T15:53:49.288Z,19.17
2023-04-13T15:56:15.797Z,18.43
2023-04-13T15:58:42.219Z,18.88
2023-04-13T16:01:13.003Z,19.01
2023-04-13T16:03:40.315Z,19.74
2023-04-13T16:06:07.688Z,18.89
2023-04-13T16:08:34.057Z,19.17
2023-04-13T16:11:01.372Z,18.58
2023-04-13T16:13:41.522Z,19.08
2023-04-13T16:16:14.947Z,18.74
2023-04-13T16:18:41.381Z,19.95
2023-04-13T16:21:07.883Z,20.04
2023-04-13T16:23:34.302Z,19.79
2023-04-13T16:26:01.529Z,19.65
2023-04-13T16:28:28.669Z,19.47
2023-04-13T16:30:56.123Z,20.49
2023-04-13T16:33:22.675Z,19.34
2023-04-13T16:35:49.040Z,18.79
2023-04-13T16:38:15.394Z,18.56
2023-04-13T16:40:41.973Z,18.29
2023-04-13T16:43:08.288Z,17.67
2023-04-13T16:45:36.804Z,17.76
2023-04-13T16:48:03.942Z,17.99
2023-04-13T16:50:31.874Z,17.72
2023-04-13T16:52:58.900Z,17.82
2023-04-13T16:55:28.653Z,17.28
2023-04-13T16:57:55.726Z,17.44
2023-04-13T17:00:23.001Z,16.76
2023-04-13T17:02:49.523Z,17.18
2023-04-13T17:05:16.178Z,17.23
2023-04-13T17:07:43.852Z,17.49
2023-04-13T17:10:12.849Z,16.76
2023-04-13T17:12:39.583Z,16.94
2023-04-13T17:15:06.677Z,17.53
2023-04-13T17:17:34.350Z,17.47
2023-04-13T17:20:00.871Z,17.16
2023-04-13T17:22:27.239Z,17.28
2023-04-13T17:24:54.046Z,17.51
2023-04-13T17:27:20.482Z,17.34
2023-04-13T17:29:47.904Z,16.92
2023-04-13T17:32:14.451Z,17.44
2023-04-13T17:34:40.864Z,17.34
2023-04-13T17:37:07.566Z,16.94
2023-04-13T17:39:35.059Z,17.15
2023-04-13T17:42:02.053Z,16.75
2023-04-13T17:44:28.410Z,16.65
2023-04-13T17:46:54.808Z,16.65
2023-04-13T17:49:22.032Z,16.77
2023-04-13T17:51:48.948Z,16.91
2023-04-13T17:54:15.322Z,16.59
2023-04-13T17:56:41.670Z,16.66
2023-04-13T17:59:08.118Z,16.76
2023-04-13T18:01:34.553Z,16.47
2023-04-13T18:04:01.209Z,16.57
2023-04-13T18:06:27.902Z,16.45
2023-04-13T18:08:54.216Z,16.53
2023-04-13T18:11:20.609Z,16.49
2023-04-13T18:13:47.132Z,15.68
2023-04-13T18:16:14.485Z,16.22
2023-04-13T18:18:41.040Z,16.37
2023-04-13T18:21:08.146Z,16.38
2023-04-13T18:23:34.501Z,15.92
2023-04-13T18:26:01.980Z,15.53
2023-04-13T18:28:29.591Z,16.17
2023-04-13T18:31:00.578Z,15.75
2023-04-13T18:33:27.732Z,16.56
2023-04-13T18:35:54.254Z,15.62
2023-04-13T18:38:20.768Z,15.95
2023-04-13T18:40:48.724Z,15.79
2023-04-13T18:43:15.710Z,16.03
2023-04-13T18:45:42.504Z,15.94
2023-04-13T18:48:11.864Z,15.84
2023-04-13T18:50:38.867Z,15.79
2023-04-13T18:53:05.991Z,15.69
2023-04-13T18:55:32.424Z,15.72
2023-04-13T18:57:58.833Z,15.30
2023-04-13T19:00:25.387Z,15.03
2023-04-13T19:02:57.213Z,15.17
2023-04-13T19:05:24.154Z,14.32
2023-04-13T19:07:57.183Z,15.39
2023-04-13T19:10:24.209Z,15.28
2023-04-13T19:12:50.772Z,15.19
2023-04-13T19:15:18.040Z,15.42
2023-04-13T19:17:44.516Z,15.15
2023-04-13T19:20:11.535Z,15.15
2023-04-13T19:22:38.244Z,14.99
2023-04-13T19:25:06.978Z,15.02
2023-04-13T19:27:33.386Z,14.92
2023-04-13T19:29:59.753Z,13.79
2023-04-13T19:32:26.419Z,14.68
2023-04-13T19:34:52.901Z,13.95
2023-04-13T19:37:19.268Z,14.39
2023-04-13T19:39:45.685Z,14.36
2023-04-13T19:42:12.047Z,13.80
2023-04-13T19:44:38.426Z,13.24
2023-04-13T19:47:04.838Z,13.88
2023-04-13T19:49:31.255Z,14.19
2023-04-13T19:51:57.794Z,14.32
2023-04-13T19:54:24.232Z,13.30
2023-04-13T19:56:50.587Z,13.67
2023-04-13T19:59:16.978Z,12.92
2023-04-13T20:01:45.779Z,13.96
2023-04-13T20:04:12.703Z,13.85
2023-04-13T20:06:39.178Z,13.92
2023-04-13T20:09:13.872Z,13.94
2023-04-13T20:11:43.348Z,13.97
2023-04-13T20:14:11.393Z,13.97
2023-04-13T20:16:37.954Z,13.33
2023-04-13T20:19:06.600Z,13.98
2023-04-13T20:21:34.255Z,13.55
2023-04-13T20:24:01.070Z,13.56
2023-04-13T20:26:29.727Z,13.30
2023-04-13T20:28:57.146Z,13.15
2023-04-13T20:31:24.987Z,13.30
2023-04-13T20:33:51.523Z,13.02
2023-04-13T20:36:21.044Z,13.43
2023-04-13T20:38:48.077Z,13.39
2023-04-13T20:41:14.468Z,13.30
2023-04-13T20:43:42.723Z,13.22
2023-04-13T20:46:11.050Z,13.50
2023-04-13T20:51:14.455Z,12.81
2023-04-13T20:53:40.884Z,12.65
2023-04-13T20:56:07.729Z,13.54
2023-04-13T20:58:34.121Z,13.35
2023-04-13T21:01:01.258Z,13.57
2023-04-13T21:03:30.680Z,13.05
2023-04-13T21:05:58.707Z,13.70
2023-04-13T21:08:26.439Z,13.02
2023-04-13T21:10:52.886Z,13.49
2023-04-13T21:13:19.778Z,12.20
2023-04-13T21:15:46.887Z,13.54
2023-04-13T21:18:13.282Z,12.35
2023-04-13T21:20:43.076Z,13.13
2023-04-13T21:23:09.844Z,13.29
2023-04-13T21:25:36.752Z,12.40
2023-04-13T21:28:03.235Z,13.03
2023-04-13T21:30:29.723Z,12.94
2023-04-13T21:32:56.204Z,12.11
2023-04-13T21:35:22.625Z,12.27
2023-04-13T21:37:49.012Z,12.95
2023-04-13T21:40:16.298Z,12.09
2023-04-13T21:42:42.689Z,12.08
2023-04-13T21:45:09.635Z,12.16
2023-04-13T21:47:36.072Z,12.08
2023-04-13T21:50:02.576Z,12.43
2023-04-13T21:52:29.049Z,12.24
2023-04-13T21:54:55.793Z,12.57
2023-04-13T21:57:22.173Z,12.45
2023-04-13T21:59:48.622Z,12.28
2023-04-13T22:02:15.794Z,12.05
2023-04-13T22:04:42.340Z,12.81
2023-04-13T22:07:08.755Z,12.30
2023-04-13T22:09:35.618Z,12.81
2023-04-13T22:12:02.054Z,12.20
2023-04-13T22:14:28.457Z,12.83
2023-04-13T22:16:54.848Z,12.97
2023-04-13T22:19:21.247Z,12.24
2023-04-13T22:21:47.609Z,12.73
2023-04-13T22:24:14.057Z,11.50
2023-04-13T22:26:40.444Z,11.78
2023-04-13T22:29:07.023Z,12.36
2023-04-13T22:31:33.658Z,12.30
2023-04-13T22:34:00.598Z,11.35
2023-04-13T22:36:27.036Z,11.64
2023-04-13T22:38:54.660Z,11.89
2023-04-13T22:41:21.110Z,12.52
2023-04-13T22:43:47.507Z,12.20
2023-04-13T22:46:13.996Z,12.45
2023-04-13T22:48:40.458Z,12.19
2023-04-13T22:51:06.840Z,12.28
2023-04-13T22:53:33.276Z,11.58
2023-04-13T22:56:00.571Z,12.15
2023-04-13T22:58:27.318Z,11.84
2023-04-13T23:00:53.798Z,12.40
2023-04-13T23:03:21.214Z,12.09
2023-04-13T23:05:47.976Z,12.20
2023-04-13T23:08:14.328Z,12.14
2023-04-13T23:10:40.703Z,11.45
2023-04-13T23:13:07.245Z,11.31
2023-04-13T23:15:33.683Z,11.75
2023-04-13T23:18:02.523Z,11.00
2023-04-13T23:20:29.325Z,10.94
2023-04-13T23:22:55.846Z,10.39
2023-04-13T23:25:22.324Z,11.27
2023-04-13T23:27:48.734Z,11.18
2023-04-13T23:30:16.024Z,11.33
2023-04-13T23:32:42.465Z,11.10
2023-04-13T23:35:09.155Z,10.26
2023-04-13T23:37:35.529Z,10.55
2023-04-13T23:40:01.948Z,10.69
2023-04-13T23:42:28.508Z,11.36
2023-04-13T23:44:54.858Z,11.06
2023-04-13T23:47:21.256Z,11.35
2023-04-13T23:49:47.779Z,11.55
2023-04-13T23:52:14.168Z,11.58
2023-04-13T23:54:40.869Z,11.65
2023-04-13T23:57:07.347Z,11.63
2023-04-13T23:59:33.673Z,11.75
